Little Deer Isle, Maine
Current Conditions -  °F | °C
As of 6:15 PM on Wednesday 17 Dec 2014 (Local Time) from KBHB Reporting Station
Overcast Overcast  
Wind Chill: 33°   Ceiling: 800
Heat Index: 39°   Visibility: 5mi
Dew Point: 39°   Wind: 9mph
Humidity: 100%   Direction: 30°NNE
Pressure: 29.64"   Gusts: NA
Location:  44.29°N, 68.7°W
Report Text: KBHB 172315Z AUTO 03008KT 5SM OVC008 04/04 A2964 RMK AO1 P0001
Loading
Personal Weather Stations






























Interactive Weather Map New forecast layout! Learn more

10-Day Weather Forecast

Advertisements
Track Severe Weather on mobile